Time;durP1;ratioP1;P1;durP2;ratioP2;P2;SDS_P1;SDS_P2;PMS_P1;PMS_P2;Temp;Humidity;BMP_temperature;BMP_pressure;BME280_temperature;BME280_humidity;BME280_pressure;Samples;Min_cycle;Max_cycle;Signal;HPM_P1;HPM_P2
2022/05/03 00:01:22;;;;;;;12.40;10.70;;;11.40;99.90;;;;;;5050513;28;20174;-66
2022/05/03 00:04:03;;;;;;;12.43;11.10;;;11.40;99.90;;;;;;5051566;28;20197;-66
2022/05/03 00:06:37;;;;;;;14.03;10.63;;;11.30;99.90;;;;;;5051427;28;20206;-66
2022/05/03 00:09:07;;;;;;;12.80;11.50;;;11.30;99.90;;;;;;5051416;28;20232;-66
2022/05/03 00:12:01;;;;;;;13.80;11.97;;;11.30;99.90;;;;;;5051798;28;20178;-66
2022/05/03 00:14:43;;;;;;;12.87;11.03;;;11.20;99.90;;;;;;5051400;28;20187;-66
2022/05/03 00:17:13;;;;;;;12.23;10.40;;;11.20;99.90;;;;;;5051706;28;20244;-66
2022/05/03 00:19:39;;;;;;;12.93;11.03;;;11.10;99.90;;;;;;5049951;28;20178;-66
2022/05/03 00:22:04;;;;;;;16.30;11.13;;;11.10;99.90;;;;;;5051419;28;20178;-66
2022/05/03 00:24:31;;;;;;;14.93;11.37;;;11.10;99.90;;;;;;5050518;28;20541;-66
2022/05/03 00:26:57;;;;;;;11.57;10.37;;;11.10;99.90;;;;;;5050557;28;20210;-66
2022/05/03 00:29:24;;;;;;;12.30;11.00;;;11.10;99.90;;;;;;5051233;28;20182;-66
2022/05/03 00:31:50;;;;;;;12.60;11.23;;;11.10;99.90;;;;;;5051392;28;20229;-66
2022/05/03 00:34:17;;;;;;;12.07;10.90;;;11.00;99.90;;;;;;5051233;28;20187;-66
2022/05/03 00:36:42;;;;;;;14.13;11.10;;;11.10;99.90;;;;;;5050956;28;20228;-66
2022/05/03 00:39:08;;;;;;;13.20;11.50;;;11.00;99.90;;;;;;5049887;28;20637;-66
2022/05/03 00:41:45;;;;;;;13.83;10.50;;;11.00;99.90;;;;;;5051337;28;20219;-66
2022/05/03 00:47:18;;;;;;;12.80;11.50;;;11.00;99.90;;;;;;5051239;28;20236;-66
2022/05/03 00:49:57;;;;;;;13.47;11.07;;;11.00;99.90;;;;;;5049737;28;20179;-66
2022/05/03 00:52:39;;;;;;;14.83;12.17;;;10.90;99.90;;;;;;5051343;28;20177;-66
2022/05/03 00:55:16;;;;;;;12.90;11.17;;;11.00;99.90;;;;;;5050983;28;20183;-66
2022/05/03 00:57:45;;;;;;;13.10;11.70;;;11.00;99.90;;;;;;5051016;28;20201;-66
2022/05/03 01:00:14;;;;;;;13.07;10.97;;;11.00;99.90;;;;;;5050655;28;20205;-66
2022/05/03 01:02:48;;;;;;;13.80;12.30;;;11.00;99.90;;;;;;5050977;28;20652;-66
2022/05/03 01:05:19;;;;;;;15.63;11.20;;;11.00;99.90;;;;;;5051443;28;20183;-66
2022/05/03 01:07:52;;;;;;;12.87;11.53;;;10.90;99.90;;;;;;5054818;28;20272;-67
2022/05/03 01:10:37;;;;;;;15.80;12.07;;;10.90;99.90;;;;;;5053521;28;20190;-66
2022/05/03 01:13:11;;;;;;;20.00;13.33;;;10.80;99.90;;;;;;5055018;28;20198;-66
2022/05/03 01:15:47;;;;;;;13.37;11.60;;;10.70;99.90;;;;;;5054176;28;20188;-66
2022/05/03 01:18:18;;;;;;;13.90;12.10;;;10.70;99.90;;;;;;5054976;28;20194;-66
2022/05/03 01:21:08;;;;;;;14.60;11.23;;;10.60;99.90;;;;;;5054521;28;20179;-66
2022/05/03 01:23:56;;;;;;;13.00;11.27;;;10.50;99.90;;;;;;5074673;28;20627;-66
2022/05/03 01:26:36;;;;;;;14.47;11.60;;;10.50;99.90;;;;;;5074440;28;20197;-66
2022/05/03 01:29:24;;;;;;;13.50;12.10;;;10.40;99.90;;;;;;5056639;28;20182;-66
2022/05/03 01:31:56;;;;;;;15.73;11.47;;;10.30;99.90;;;;;;5054590;28;20650;-66
2022/05/03 01:34:24;;;;;;;13.20;11.43;;;10.30;99.90;;;;;;5054456;28;20710;-66
2022/05/03 01:37:27;;;;;;;13.77;12.37;;;10.20;99.90;;;;;;5054093;28;20309;-66
2022/05/03 01:40:02;;;;;;;14.60;11.13;;;10.20;99.90;;;;;;5034424;28;20206;-66
2022/05/03 01:43:23;;;;;;;13.10;11.80;;;10.20;99.90;;;;;;5038228;28;20222;-66
2022/05/03 01:46:04;;;;;;;14.03;11.50;;;10.20;99.90;;;;;;5011783;28;20334;-66
2022/05/03 01:52:05;;;;;;;12.20;11.00;;;10.10;99.90;;;;;;5054651;28;20165;-66
2022/05/03 01:55:09;;;;;;;14.40;11.17;;;10.10;99.90;;;;;;5053894;28;20299;-66
2022/05/03 01:58:09;;;;;;;11.93;10.83;;;10.10;99.90;;;;;;5053889;28;20675;-66
2022/05/03 02:00:35;;;;;;;15.87;10.93;;;10.00;99.90;;;;;;5054249;28;20182;-66
2022/05/03 02:03:01;;;;;;;10.93;9.83;;;10.00;99.90;;;;;;5053913;28;20175;-66
2022/05/03 02:05:34;;;;;;;14.80;10.90;;;10.00;99.90;;;;;;5053982;28;20178;-66
2022/05/03 02:08:00;;;;;;;14.37;11.10;;;10.00;99.90;;;;;;5053454;28;20263;-66
2022/05/03 02:10:45;;;;;;;12.50;10.93;;;9.90;99.90;;;;;;5054135;28;20224;-66
2022/05/03 02:14:43;;;;;;;12.60;10.03;;;9.90;99.90;;;;;;5053768;28;20174;-66
2022/05/03 02:16:29;;;;;;;11.73;10.63;;;9.90;99.90;;;;;;5053175;28;20198;-66
2022/05/03 02:19:24;;;;;;;10.67;9.57;;;9.80;99.90;;;;;;5051701;28;20212;-66
2022/05/03 02:22:13;;;;;;;12.33;10.47;;;9.80;99.90;;;;;;5053711;28;20226;-66
2022/05/03 02:24:55;;;;;;;11.67;10.57;;;9.70;99.90;;;;;;5033637;28;20290;-66
2022/05/03 02:27:23;;;;;;;12.80;10.60;;;9.70;99.90;;;;;;5053549;28;20245;-66
2022/05/03 02:29:50;;;;;;;12.60;10.10;;;9.60;99.90;;;;;;5052033;28;20178;-66
2022/05/03 02:32:35;;;;;;;11.73;10.00;;;9.60;99.90;;;;;;5052624;28;20179;-66
2022/05/03 02:35:06;;;;;;;12.43;10.87;;;9.50;99.90;;;;;;5053304;28;20271;-66
2022/05/03 02:37:38;;;;;;;11.33;10.20;;;9.40;99.90;;;;;;5053391;28;20734;-66
2022/05/03 02:40:09;;;;;;;11.13;10.03;;;9.40;99.90;;;;;;5053489;28;20179;-66
2022/05/03 02:42:35;;;;;;;14.63;11.07;;;9.40;99.90;;;;;;5053499;28;20185;-66
2022/05/03 02:45:04;;;;;;;12.80;11.20;;;9.30;99.90;;;;;;5051693;28;20179;-66
2022/05/03 02:47:36;;;;;;;13.70;10.83;;;9.30;99.90;;;;;;5052728;28;20570;-66
2022/05/03 02:50:08;;;;;;;11.47;10.27;;;9.20;99.90;;;;;;5053575;28;20175;-66
2022/05/03 02:52:58;;;;;;;11.47;10.33;;;9.20;99.90;;;;;;5053223;28;20703;-66
2022/05/03 02:55:24;;;;;;;15.23;10.60;;;9.20;99.90;;;;;;5053407;28;20221;-66
2022/05/03 02:58:27;;;;;;;10.70;9.70;;;9.20;99.90;;;;;;5053398;28;20680;-66
2022/05/03 03:04:27;;;;;;;11.73;10.30;;;9.10;99.90;;;;;;5052446;28;20244;-66
2022/05/03 03:06:55;;;;;;;11.63;10.43;;;9.00;99.90;;;;;;5052628;28;20293;-66
2022/05/03 03:09:53;;;;;;;11.23;10.13;;;9.00;99.90;;;;;;5052710;28;20179;-66
2022/05/03 03:12:31;;;;;;;11.27;10.17;;;9.00;99.90;;;;;;5051702;28;20593;-66
2022/05/03 03:15:08;;;;;;;12.50;10.97;;;9.00;99.90;;;;;;5052152;28;20192;-66
2022/05/03 03:17:41;;;;;;;11.20;9.87;;;8.90;99.90;;;;;;5052857;28;20198;-66
2022/05/03 03:20:13;;;;;;;13.47;10.53;;;8.90;99.90;;;;;;5051106;28;20526;-66
2022/05/03 03:22:44;;;;;;;11.53;10.27;;;8.90;99.90;;;;;;5051621;28;20190;-66
2022/05/03 03:25:13;;;;;;;13.27;9.57;;;8.90;99.90;;;;;;5052046;28;20183;-66
2022/05/03 03:27:39;;;;;;;11.73;10.37;;;8.90;99.90;;;;;;5052732;28;20679;-66
2022/05/03 03:30:10;;;;;;;11.60;10.40;;;8.90;99.90;;;;;;5050910;28;20383;-66
2022/05/03 03:32:38;;;;;;;13.17;11.30;;;8.80;99.90;;;;;;5052512;28;20209;-66
2022/05/03 03:35:04;;;;;;;15.40;10.80;;;8.80;99.90;;;;;;5051762;28;20171;-66
2022/05/03 03:37:33;;;;;;;12.13;10.93;;;8.80;99.90;;;;;;5051525;28;20245;-66
2022/05/03 03:39:59;;;;;;;11.20;10.03;;;8.70;99.90;;;;;;5051799;28;20193;-66
2022/05/03 03:42:28;;;;;;;12.20;10.90;;;8.70;99.90;;;;;;5052270;28;20183;-66
2022/05/03 03:44:58;;;;;;;12.43;10.23;;;8.70;99.90;;;;;;5051352;28;20563;-66
2022/05/03 03:47:24;;;;;;;13.10;11.80;;;8.60;99.90;;;;;;5052265;28;20221;-66
2022/05/03 03:49:51;;;;;;;15.97;10.93;;;8.60;99.90;;;;;;5050495;28;20544;-66
2022/05/03 03:52:16;;;;;;;12.70;11.47;;;8.60;99.90;;;;;;5050764;28;20615;-66
2022/05/03 03:54:43;;;;;;;17.03;11.90;;;8.50;99.90;;;;;;5050245;28;20312;-66
2022/05/03 03:57:09;;;;;;;14.40;11.17;;;8.50;99.90;;;;;;5051595;28;20256;-66
2022/05/03 03:59:37;;;;;;;12.43;11.17;;;8.40;99.90;;;;;;5052065;28;20171;-66
2022/05/03 04:02:03;;;;;;;12.30;11.10;;;8.40;99.90;;;;;;5050122;28;20553;-66
2022/05/03 04:04:33;;;;;;;14.83;11.43;;;8.40;99.90;;;;;;5050325;28;20248;-66
2022/05/03 04:06:59;;;;;;;14.83;11.90;;;8.40;99.90;;;;;;5050151;28;20301;-66
2022/05/03 04:09:26;;;;;;;13.97;12.60;;;8.30;99.90;;;;;;5051761;28;20281;-66
2022/05/03 04:11:53;;;;;;;15.80;12.43;;;8.30;99.90;;;;;;5051804;28;20535;-66
2022/05/03 04:14:19;;;;;;;15.83;12.57;;;8.20;99.90;;;;;;5051417;28;20266;-66
2022/05/03 04:16:45;;;;;;;14.30;12.80;;;8.20;99.90;;;;;;5051304;28;20572;-66
2022/05/03 04:19:12;;;;;;;13.73;12.40;;;8.20;99.90;;;;;;5050374;28;20194;-66
2022/05/03 04:21:38;;;;;;;13.17;12.00;;;8.20;99.90;;;;;;5051689;28;20174;-66
2022/05/03 04:24:04;;;;;;;14.63;13.10;;;8.20;99.90;;;;;;5051170;28;20186;-66
2022/05/03 04:26:30;;;;;;;15.23;13.63;;;8.10;99.90;;;;;;5051049;28;20679;-66
2022/05/03 04:28:57;;;;;;;16.83;13.97;;;8.10;99.90;;;;;;5051311;28;20261;-66
2022/05/03 04:31:26;;;;;;;15.17;13.57;;;8.10;99.90;;;;;;5051538;28;20232;-66
2022/05/03 04:33:53;;;;;;;16.63;12.60;;;8.10;99.90;;;;;;5051190;28;20602;-66
2022/05/03 04:36:18;;;;;;;14.97;12.60;;;8.10;99.90;;;;;;5051002;28;20723;-66
2022/05/03 04:38:44;;;;;;;14.23;12.73;;;8.10;99.90;;;;;;5051104;28;20217;-65
2022/05/03 04:41:09;;;;;;;15.10;13.37;;;8.10;99.90;;;;;;5050986;28;20509;-66
2022/05/03 04:43:35;;;;;;;16.10;13.03;;;8.10;99.90;;;;;;5051113;28;20190;-66
2022/05/03 04:46:01;;;;;;;13.43;12.03;;;8.10;99.90;;;;;;5051315;28;20209;-66
2022/05/03 04:48:27;;;;;;;14.80;12.40;;;8.20;99.90;;;;;;5052346;28;20213;-66
2022/05/03 04:50:53;;;;;;;13.67;12.17;;;8.20;99.90;;;;;;5051380;28;20598;-66
2022/05/03 04:53:18;;;;;;;14.30;11.73;;;8.30;99.90;;;;;;5050911;28;20726;-66
2022/05/03 04:55:44;;;;;;;14.17;12.67;;;8.40;99.90;;;;;;5050870;28;20244;-66
2022/05/03 04:58:10;;;;;;;16.67;13.43;;;8.50;99.90;;;;;;5050820;28;20549;-66
2022/05/03 05:00:36;;;;;;;13.33;12.03;;;8.50;99.90;;;;;;5051259;28;20186;-66
2022/05/03 05:03:01;;;;;;;13.50;11.73;;;8.50;99.90;;;;;;5051056;28;20186;-66
2022/05/03 05:05:27;;;;;;;13.33;12.00;;;8.60;99.90;;;;;;5049271;28;20190;-66
2022/05/03 05:07:53;;;;;;;15.20;12.40;;;8.70;99.90;;;;;;5050584;28;20217;-66
2022/05/03 05:10:26;;;;;;;14.60;11.90;;;8.70;99.90;;;;;;5051368;28;20171;-66
2022/05/03 05:12:55;;;;;;;13.77;12.20;;;8.80;99.90;;;;;;5050860;28;20243;-66
2022/05/03 05:15:24;;;;;;;15.80;12.03;;;8.80;99.90;;;;;;5050782;28;20220;-66
2022/05/03 05:17:54;;;;;;;14.63;11.73;;;8.80;99.90;;;;;;5049490;28;20202;-66
2022/05/03 05:20:20;;;;;;;14.10;11.23;;;8.90;99.90;;;;;;5049877;28;20189;-66
2022/05/03 05:22:46;;;;;;;13.97;11.60;;;9.00;99.90;;;;;;5049545;28;20183;-66
2022/05/03 05:25:13;;;;;;;13.37;12.13;;;9.00;99.90;;;;;;5070932;28;20182;-66
2022/05/03 05:27:39;;;;;;;13.50;12.03;;;9.00;99.90;;;;;;5070915;28;20283;-65
2022/05/03 05:30:06;;;;;;;14.27;12.57;;;9.00;99.90;;;;;;5056255;28;20657;-65
2022/05/03 05:32:32;;;;;;;14.37;12.87;;;9.00;99.90;;;;;;5051048;28;20167;-66
2022/05/03 05:34:58;;;;;;;12.93;11.63;;;9.10;99.90;;;;;;5050223;28;20282;-66
2022/05/03 05:37:23;;;;;;;13.77;11.60;;;9.10;99.90;;;;;;5050762;28;20641;-66
2022/05/03 05:39:49;;;;;;;13.40;12.10;;;9.20;99.90;;;;;;5049243;28;20183;-66
2022/05/03 05:42:14;;;;;;;12.93;11.17;;;9.50;99.90;;;;;;5051196;28;20183;-66
2022/05/03 05:44:40;;;;;;;12.17;10.90;;;9.70;99.90;;;;;;5050440;28;20191;-66
2022/05/03 05:47:06;;;;;;;11.67;10.20;;;9.90;99.90;;;;;;5050604;28;20497;-66
2022/05/03 05:49:31;;;;;;;14.83;10.83;;;10.10;99.90;;;;;;5050637;28;20179;-66
2022/05/03 05:54:41;;;;;;;12.27;10.80;;;10.60;99.90;;;;;;5049309;28;20232;-66
2022/05/03 05:57:07;;;;;;;15.10;11.10;;;10.90;99.90;;;;;;5054024;28;20724;-66
2022/05/03 05:59:32;;;;;;;13.33;10.17;;;10.90;99.90;;;;;;5054075;28;20190;-66
2022/05/03 06:01:58;;;;;;;11.77;10.40;;;11.20;99.90;;;;;;5054078;28;20178;-66
2022/05/03 06:04:23;;;;;;;10.80;9.70;;;11.30;99.90;;;;;;5052269;28;20236;-66
2022/05/03 06:06:49;;;;;;;10.97;9.90;;;11.60;99.90;;;;;;5053772;28;20202;-66
2022/05/03 06:09:14;;;;;;;11.13;10.00;;;11.90;99.90;;;;;;5053717;28;20182;-66
2022/05/03 06:11:40;;;;;;;10.77;9.77;;;12.20;99.90;;;;;;5053288;28;20179;-66
2022/05/03 06:14:06;;;;;;;10.03;8.87;;;12.50;99.90;;;;;;5053725;28;20217;-66
2022/05/03 06:16:31;;;;;;;11.83;9.67;;;12.60;99.90;;;;;;5052509;28;20194;-66
2022/05/03 06:18:57;;;;;;;11.97;9.67;;;12.80;99.90;;;;;;5053500;28;20265;-65
2022/05/03 06:21:23;;;;;;;14.40;10.67;;;13.30;99.90;;;;;;5052512;28;20175;-66
2022/05/03 06:23:48;;;;;;;13.57;9.87;;;13.50;99.90;;;;;;5053779;28;20182;-66
2022/05/03 06:26:14;;;;;;;11.27;9.40;;;13.60;99.90;;;;;;5053310;28;20689;-66
2022/05/03 06:28:41;;;;;;;12.00;10.90;;;13.90;99.90;;;;;;5053433;28;20240;-66
2022/05/03 06:31:07;;;;;;;13.53;12.43;;;14.20;99.90;;;;;;5053633;28;20201;-66
2022/05/03 06:33:32;;;;;;;13.37;12.20;;;14.40;99.90;;;;;;5053444;28;20202;-66
2022/05/03 06:35:58;;;;;;;12.30;11.20;;;14.50;99.90;;;;;;5052799;28;20727;-66
2022/05/03 06:38:24;;;;;;;10.77;9.67;;;14.70;99.90;;;;;;5051628;28;20179;-66
2022/05/03 06:40:49;;;;;;;10.33;9.50;;;15.10;99.90;;;;;;5053293;28;20372;-67
2022/05/03 06:43:15;;;;;;;9.47;8.60;;;15.40;99.90;;;;;;5052994;28;20183;-67
2022/05/03 06:45:40;;;;;;;11.17;8.77;;;15.70;99.90;;;;;;5052706;28;20254;-66
2022/05/03 06:48:09;;;;;;;10.73;8.60;;;15.60;99.90;;;;;;5052437;28;20214;-67
2022/05/03 06:50:34;;;;;;;10.03;8.63;;;15.70;99.90;;;;;;5052810;28;20232;-66
2022/05/03 06:53:00;;;;;;;10.47;8.83;;;15.90;99.90;;;;;;5052237;28;20179;-66
2022/05/03 06:55:26;;;;;;;8.83;7.90;;;16.00;99.90;;;;;;5052857;28;20552;-66
2022/05/03 06:57:51;;;;;;;8.33;7.53;;;15.90;99.90;;;;;;5052804;28;20286;-66
2022/05/03 07:00:17;;;;;;;7.90;7.10;;;16.10;99.90;;;;;;5052823;28;20181;-67
2022/05/03 07:02:43;;;;;;;11.50;8.10;;;16.10;99.90;;;;;;5052438;28;20232;-66
2022/05/03 07:05:09;;;;;;;10.33;7.40;;;16.10;99.90;;;;;;5052661;28;20178;-67
2022/05/03 07:07:34;;;;;;;7.90;7.10;;;16.50;99.90;;;;;;5052484;28;20254;-66
2022/05/03 07:10:00;;;;;;;9.03;7.57;;;16.60;99.90;;;;;;5051447;28;20171;-66
2022/05/03 07:12:27;;;;;;;8.30;7.57;;;16.30;99.90;;;;;;5052100;28;20174;-66
2022/05/03 07:14:59;;;;;;;7.67;6.80;;;16.30;99.90;;;;;;5052315;28;20167;-67
2022/05/03 07:22:53;;;;;;;10.40;7.43;;;17.10;99.90;;;;;;5052427;28;20190;-67
2022/05/03 07:25:19;;;;;;;8.73;7.03;;;17.30;99.90;;;;;;5052030;28;20163;-66
2022/05/03 07:27:46;;;;;;;8.07;7.07;;;17.60;99.90;;;;;;5052283;28;20249;-67
2022/05/03 07:30:16;;;;;;;8.47;6.70;;;17.70;99.90;;;;;;5052531;28;20640;-67
2022/05/03 07:32:45;;;;;;;7.30;6.63;;;17.60;99.90;;;;;;5052103;28;20179;-67
2022/05/03 07:35:12;;;;;;;7.50;6.80;;;17.90;99.90;;;;;;5050424;28;20200;-67
2022/05/03 07:37:39;;;;;;;6.83;6.13;;;18.20;99.90;;;;;;5052020;28;20219;-67
2022/05/03 07:40:06;;;;;;;6.93;6.33;;;18.20;99.90;;;;;;5048737;28;20178;-66
2022/05/03 07:42:32;;;;;;;8.23;6.47;;;18.20;99.90;;;;;;5051668;28;20189;-67
2022/05/03 07:44:58;;;;;;;6.83;6.23;;;18.30;99.90;;;;;;5051660;28;20176;-67
2022/05/03 07:47:23;;;;;;;7.03;6.43;;;18.20;99.90;;;;;;5051874;28;20264;-67
2022/05/03 07:49:49;;;;;;;6.70;6.03;;;18.20;99.90;;;;;;5051799;28;20202;-66
2022/05/03 07:52:15;;;;;;;7.07;6.37;;;18.20;99.90;;;;;;5051726;28;20218;-66
2022/05/03 07:54:42;;;;;;;6.93;6.23;;;18.20;99.90;;;;;;5051457;28;20645;-67
2022/05/03 07:57:08;;;;;;;9.47;6.83;;;18.20;99.90;;;;;;5051953;28;20552;-67
2022/05/03 07:59:33;;;;;;;7.13;6.40;;;18.20;99.90;;;;;;5050782;28;20206;-67
2022/05/03 08:01:59;;;;;;;8.57;6.80;;;18.50;99.90;;;;;;5051446;28;20179;-67
2022/05/03 08:04:25;;;;;;;8.70;5.90;;;19.10;99.90;;;;;;5051600;28;20174;-67
2022/05/03 08:06:51;;;;;;;7.03;6.32;;;19.40;99.90;;;;;;5051023;28;20754;-66
2022/05/03 08:09:17;;;;;;;9.27;6.43;;;19.80;99.90;;;;;;5051415;28;20185;-67
2022/05/03 08:11:43;;;;;;;7.47;6.40;;;19.40;99.90;;;;;;5049739;28;20179;-67
2022/05/03 08:14:08;;;;;;;7.35;6.60;;;19.10;99.90;;;;;;5051333;28;20171;-67
2022/05/03 08:16:34;;;;;;;7.50;6.25;;;19.20;99.90;;;;;;5045697;28;20202;-67
2022/05/03 08:19:00;;;;;;;9.35;6.65;;;19.20;99.90;;;;;;5051335;28;20183;-67
2022/05/03 08:21:27;;;;;;;7.45;6.38;;;19.60;99.90;;;;;;5040906;28;20183;-66
2022/05/03 08:23:54;;;;;;;7.38;6.40;;;19.90;99.90;;;;;;5049696;28;20239;-67
2022/05/03 08:26:20;;;;;;;6.20;5.60;;;20.40;99.90;;;;;;5066812;28;20198;-67
2022/05/03 08:28:46;;;;;;;10.55;5.80;;;20.40;99.90;;;;;;5066758;28;20177;-67
2022/05/03 08:31:11;;;;;;;6.10;5.57;;;21.10;99.90;;;;;;5052097;28;20187;-67
2022/05/03 08:33:37;;;;;;;6.28;5.68;;;21.60;99.90;;;;;;5059310;28;20664;-67
2022/05/03 08:36:03;;;;;;;11.07;6.53;;;21.80;99.90;;;;;;5049531;28;20676;-67
2022/05/03 08:43:59;;;;;;;7.18;5.55;;;21.30;99.90;;;;;;5048961;28;20193;-66
2022/05/03 08:46:25;;;;;;;5.95;5.38;;;21.30;99.90;;;;;;5047788;28;20206;-66
2022/05/03 08:48:55;;;;;;;5.60;5.10;;;21.00;99.90;;;;;;5070820;28;20206;-67
2022/05/03 08:51:23;;;;;;;4.97;4.57;;;20.80;99.90;;;;;;5064418;28;20819;-64
2022/05/03 08:53:49;;;;;;;4.95;4.55;;;20.80;99.90;;;;;;5051290;28;20178;-64
2022/05/03 08:56:18;;;;;;;5.95;5.30;;;20.80;99.40;;;;;;5050045;28;20198;-64
2022/05/03 08:58:44;;;;;;;5.53;4.60;;;20.60;99.30;;;;;;5051136;28;20174;-66
2022/05/03 09:01:11;;;;;;;5.78;4.63;;;20.50;98.40;;;;;;5051239;28;20174;-65
2022/05/03 09:03:37;;;;;;;5.25;4.78;;;20.40;99.90;;;;;;5051095;28;20666;-64
2022/05/03 09:06:04;;;;;;;5.20;4.53;;;20.70;99.80;;;;;;5050838;28;20200;-65
2022/05/03 09:08:32;;;;;;;4.55;4.13;;;21.00;99.50;;;;;;5051035;28;20207;-64
2022/05/03 09:10:59;;;;;;;4.22;3.90;;;21.50;99.90;;;;;;5049856;28;20228;-64
2022/05/03 09:13:26;;;;;;;4.53;4.13;;;21.90;99.50;;;;;;5051240;28;20175;-66
2022/05/03 09:15:56;;;;;;;6.45;4.90;;;22.40;96.40;;;;;;5046153;28;20257;-65
2022/05/03 09:18:31;;;;;;;6.72;4.60;;;22.20;97.40;;;;;;5031079;28;20168;-65
2022/05/03 09:23:48;;;;;;;5.50;4.68;;;22.30;97.30;;;;;;5031415;28;20217;-64
2022/05/03 09:26:41;;;;;;;5.07;4.55;;;22.50;95.90;;;;;;5031546;28;20725;-63
2022/05/03 09:29:08;;;;;;;6.95;4.40;;;22.40;95.20;;;;;;5032045;28;20187;-65
2022/05/03 09:31:46;;;;;;;6.43;4.68;;;21.90;93.30;;;;;;5034854;28;20289;-64
2022/05/03 09:34:23;;;;;;;6.03;3.75;;;21.80;95.10;;;;;;5034953;28;20167;-65
2022/05/03 09:36:55;;;;;;;7.10;4.22;;;22.30;93.30;;;;;;5064492;22;20225;-66
2022/05/03 09:39:50;;;;;;;4.60;4.20;;;22.50;94.00;;;;;;5055452;28;20179;-66
2022/05/03 09:42:17;;;;;;;5.82;4.78;;;22.90;94.90;;;;;;5046948;28;20606;-63
2022/05/03 09:44:54;;;;;;;5.65;5.07;;;22.90;94.00;;;;;;5053949;28;20171;-66
2022/05/03 09:47:22;;;;;;;5.45;4.57;;;22.90;94.20;;;;;;5057461;28;20251;-65
2022/05/03 09:49:48;;;;;;;5.07;4.68;;;22.90;93.20;;;;;;5052702;28;20694;-66
2022/05/03 09:52:36;;;;;;;4.75;4.35;;;22.90;94.30;;;;;;5050657;28;20183;-66
2022/05/03 09:55:09;;;;;;;8.82;5.03;;;22.80;92.80;;;;;;5067772;28;20178;-66
2022/05/03 09:57:42;;;;;;;9.43;5.00;;;22.50;93.30;;;;;;5068760;28;20194;-66
2022/05/03 10:00:10;;;;;;;5.38;4.82;;;22.50;94.00;;;;;;5067758;28;20178;-66
2022/05/03 10:02:40;;;;;;;7.13;4.93;;;22.40;94.20;;;;;;5074408;28;20178;-66
2022/05/03 10:05:07;;;;;;;6.22;5.63;;;22.60;93.70;;;;;;5052791;28;20186;-65
2022/05/03 10:07:35;;;;;;;9.15;4.72;;;22.80;93.50;;;;;;5066041;28;20209;-65
2022/05/03 10:10:07;;;;;;;5.65;5.05;;;22.70;93.50;;;;;;5069387;28;20167;-65
2022/05/03 10:12:36;;;;;;;7.18;5.15;;;22.80;94.20;;;;;;5041098;28;20167;-65
2022/05/03 10:15:02;;;;;;;8.73;5.22;;;23.10;92.30;;;;;;5053354;28;20687;-66
2022/05/03 10:20:38;;;;;;;8.15;5.20;;;23.70;93.50;;;;;;5052717;28;20185;-65
2022/05/03 10:23:04;;;;;;;5.97;5.15;;;23.90;94.40;;;;;;5053308;28;20256;-66
2022/05/03 10:25:59;;;;;;;6.90;5.18;;;24.00;93.00;;;;;;5053817;28;20183;-64
2022/05/03 10:28:45;;;;;;;9.18;5.45;;;24.00;93.00;;;;;;5053055;28;20301;-66
2022/05/03 10:31:13;;;;;;;6.35;5.75;;;24.40;93.50;;;;;;5052012;28;20186;-66
2022/05/03 10:33:40;;;;;;;6.05;5.45;;;24.50;91.30;;;;;;5053788;28;20177;-65
2022/05/03 10:36:34;;;;;;;5.30;4.80;;;24.20;89.50;;;;;;5053614;28;20236;-67
2022/05/03 10:39:20;;;;;;;8.95;5.10;;;24.60;91.40;;;;;;5037007;28;20320;-66
2022/05/03 10:41:53;;;;;;;6.20;5.35;;;24.60;93.20;;;;;;5053830;28;20179;-66
2022/05/03 10:44:42;;;;;;;6.93;5.80;;;24.50;90.70;;;;;;5053685;28;20266;-65
2022/05/03 10:47:10;;;;;;;6.82;5.47;;;24.90;90.00;;;;;;5053111;28;20297;-66
2022/05/03 10:50:11;;;;;;;5.75;5.25;;;24.90;89.00;;;;;;5053692;28;20265;-66
2022/05/03 10:52:37;;;;;;;7.80;6.18;;;24.50;90.20;;;;;;5052840;28;20166;-65
2022/05/03 10:55:11;;;;;;;5.95;5.43;;;23.90;86.70;;;;;;5052921;28;20175;-65
2022/05/03 10:58:14;;;;;;;5.75;5.25;;;24.00;89.70;;;;;;5052893;28;20256;-66
2022/05/03 11:01:20;;;;;;;6.03;5.43;;;24.20;90.50;;;;;;5052851;28;20188;-66
2022/05/03 11:03:52;;;;;;;6.50;4.97;;;24.10;91.10;;;;;;5052419;28;20275;-66
2022/05/03 11:06:26;;;;;;;6.18;5.60;;;24.40;89.10;;;;;;5052601;28;20175;-65
2022/05/03 11:11:39;;;;;;;5.75;5.20;;;24.50;84.40;;;;;;5072796;28;20623;-66
2022/05/03 11:17:03;;;;;;;7.45;5.53;;;24.90;90.40;;;;;;5051790;28;20210;-66
2022/05/03 11:19:30;;;;;;;7.18;6.43;;;24.60;84.10;;;;;;5052767;28;20213;-66
2022/05/03 11:21:58;;;;;;;6.20;5.70;;;24.70;87.30;;;;;;5052541;28;20201;-66
2022/05/03 11:24:26;;;;;;;6.68;5.90;;;24.30;85.10;;;;;;5050492;28;20210;-65
2022/05/03 11:26:57;;;;;;;6.97;6.28;;;23.80;84.60;;;;;;5052579;28;20599;-65
2022/05/03 11:29:35;;;;;;;8.65;5.70;;;23.90;89.50;;;;;;5052811;28;20182;-65
2022/05/03 11:32:02;;;;;;;6.72;6.13;;;24.10;87.60;;;;;;5036641;28;20167;-66
2022/05/03 11:34:28;;;;;;;7.95;6.13;;;24.10;81.60;;;;;;5052479;28;20252;-62
2022/05/03 11:36:54;;;;;;;9.95;6.70;;;24.00;83.90;;;;;;5052254;28;20218;-65
2022/05/03 11:39:22;;;;;;;7.35;6.38;;;23.90;87.80;;;;;;5053127;28;20210;-64
2022/05/03 11:41:48;;;;;;;6.72;6.05;;;24.00;83.40;;;;;;5052257;28;20515;-65
2022/05/03 11:44:15;;;;;;;6.15;5.55;;;24.10;85.40;;;;;;5053185;28;20227;-64
2022/05/03 11:46:43;;;;;;;6.15;5.55;;;24.20;85.10;;;;;;5052051;28;20260;-65
2022/05/03 11:49:11;;;;;;;9.25;6.07;;;24.40;89.90;;;;;;5053113;28;20170;-65
2022/05/03 11:57:08;;;;;;;6.32;5.72;;;24.40;82.20;;;;;;5052203;28;20217;-65
2022/05/03 11:59:34;;;;;;;7.00;6.32;;;24.60;84.80;;;;;;5052669;28;20183;-65
2022/05/03 12:02:20;;;;;;;6.95;6.25;;;24.60;85.80;;;;;;5051982;28;20269;-66
2022/05/03 12:05:15;;;;;;;6.72;5.85;;;24.80;85.50;;;;;;5052141;28;20182;-66
2022/05/03 12:07:49;;;;;;;6.80;6.13;;;25.30;85.40;;;;;;5036764;28;20209;-64
2022/05/03 12:10:38;;;;;;;9.25;6.07;;;25.50;79.70;;;;;;5051654;28;20208;-65
2022/05/03 12:13:17;;;;;;;6.65;6.05;;;24.50;82.00;;;;;;5050872;28;20646;-65
2022/05/03 12:15:48;;;;;;;7.28;5.97;;;23.50;79.60;;;;;;5049696;28;20184;-65
2022/05/03 12:18:25;;;;;;;7.00;6.25;;;23.30;84.00;;;;;;5042473;28;20618;-65
2022/05/03 12:20:58;;;;;;;6.03;5.47;;;23.30;82.70;;;;;;5050110;28;20186;-64
2022/05/03 12:23:25;;;;;;;6.93;6.22;;;23.40;86.10;;;;;;5052147;28;20186;-66
2022/05/03 12:25:56;;;;;;;6.22;5.72;;;23.90;90.00;;;;;;5051538;28;20193;-65
2022/05/03 12:28:39;;;;;;;8.85;5.75;;;24.20;88.90;;;;;;5051473;28;20217;-68
2022/05/03 12:31:07;;;;;;;6.25;5.75;;;24.40;84.90;;;;;;5049770;28;20604;-65
2022/05/03 12:33:32;;;;;;;7.00;5.10;;;24.30;83.30;;;;;;5050315;28;20167;-65
2022/05/03 12:35:59;;;;;;;6.30;5.70;;;24.30;86.40;;;;;;5050887;28;20181;-66
2022/05/03 12:38:26;;;;;;;6.55;6.03;;;24.60;83.50;;;;;;5051312;28;20237;-65
2022/05/03 12:40:55;;;;;;;7.47;6.38;;;24.60;83.20;;;;;;5051285;28;20178;-65
2022/05/03 12:43:28;;;;;;;8.48;6.15;;;24.50;81.30;;;;;;5051900;28;20171;-66
2022/05/03 12:46:07;;;;;;;7.93;6.00;;;24.40;80.20;;;;;;5051309;28;20171;-65
2022/05/03 12:48:36;;;;;;;6.93;5.80;;;24.10;81.80;;;;;;5051796;28;20652;-65
2022/05/03 12:51:03;;;;;;;6.65;6.13;;;24.30;84.40;;;;;;5051484;28;20218;-66
2022/05/03 12:53:33;;;;;;;5.80;5.30;;;24.30;78.60;;;;;;5051673;28;20263;-65
2022/05/03 12:58:44;;;;;;;8.13;5.78;;;24.20;86.20;;;;;;5051324;28;20186;-63
2022/05/03 13:01:11;;;;;;;6.38;5.43;;;24.10;84.90;;;;;;5051754;28;20171;-64
2022/05/03 13:03:38;;;;;;;8.27;6.03;;;24.10;84.40;;;;;;5055999;28;20630;-65
2022/05/03 13:06:04;;;;;;;5.82;5.30;;;24.30;81.20;;;;;;5055036;28;20174;-65
2022/05/03 13:08:30;;;;;;;6.68;6.03;;;24.40;83.00;;;;;;5055456;28;20544;-65
2022/05/03 13:10:55;;;;;;;10.00;6.57;;;24.40;79.70;;;;;;5055730;28;20194;-65
2022/05/03 13:13:21;;;;;;;7.07;6.03;;;24.30;82.00;;;;;;5055927;28;20213;-65
2022/05/03 13:15:47;;;;;;;6.25;5.03;;;24.40;80.50;;;;;;5055386;28;20635;-65
2022/05/03 13:18:13;;;;;;;6.78;5.93;;;24.40;80.60;;;;;;5055537;28;20252;-65
2022/05/03 13:20:39;;;;;;;7.78;5.95;;;24.40;87.50;;;;;;5055365;28;20174;-63
2022/05/03 13:23:05;;;;;;;7.50;5.82;;;24.40;78.50;;;;;;5054714;28;20174;-64
2022/05/03 13:25:30;;;;;;;12.68;5.88;;;24.00;81.20;;;;;;5054741;28;20609;-64
2022/05/03 13:27:56;;;;;;;7.95;5.50;;;24.00;80.50;;;;;;5054513;28;20285;-65
2022/05/03 13:30:23;;;;;;;7.95;5.68;;;23.80;80.00;;;;;;5054963;28;20185;-65
2022/05/03 13:32:49;;;;;;;7.53;5.30;;;23.60;76.60;;;;;;5054514;28;20171;-65
2022/05/03 13:35:15;;;;;;;7.03;5.85;;;23.70;78.60;;;;;;5055299;28;20560;-65
2022/05/03 13:40:31;;;;;;;6.20;5.53;;;24.10;77.20;;;;;;5054551;28;20173;-67
2022/05/03 13:43:02;;;;;;;7.63;5.70;;;24.10;77.20;;;;;;5054051;28;20179;-64
2022/05/03 13:45:28;;;;;;;6.30;5.72;;;24.20;78.10;;;;;;5054387;28;20250;-65